Time,TemperatureF,DewpointF,PressureIn,WindDirection,WindDirectionDegrees,WindSpeedMPH,WindSpeedGustMPH,Humidity,HourlyPrecipIn,Conditions,Clouds,dailyrainin,SoftwareType,DateUTC
2013-11-16 00:02:00,48.6,27.6,29.75,South,180,0.0,0.0,44,0.00,,,0.00,VWS V14.01,2013-11-16 08:02:00,
2013-11-16 00:07:00,48.4,27.5,29.75,South,179,0.0,0.0,44,0.00,,,0.00,VWS V14.01,2013-11-16 08:07:00,
2013-11-16 00:12:00,48.4,27.5,29.75,South,180,0.0,0.0,44,0.00,,,0.00,VWS V14.01,2013-11-16 08:12:00,
2013-11-16 00:17:00,48.2,27.3,29.75,South,171,0.0,0.0,44,0.00,,,0.00,VWS V14.01,2013-11-16 08:17:00,
2013-11-16 00:22:00,48.4,28.0,29.75,South,169,0.0,0.0,45,0.00,,,0.00,VWS V14.01,2013-11-16 08:22:00,
2013-11-16 00:27:00,48.2,27.9,29.75,SSW,197,0.0,0.0,45,0.00,,,0.00,VWS V14.01,2013-11-16 08:27:00,
2013-11-16 00:32:00,48.2,27.9,29.75,SE,133,2.2,3.1,45,0.00,,,0.00,VWS V14.01,2013-11-16 08:32:00,
2013-11-16 00:37:00,48.0,27.7,29.72,SSE,158,0.0,0.0,45,0.00,,,0.00,VWS V14.01,2013-11-16 08:37:00,
2013-11-16 00:42:00,48.0,28.2,29.72,South,173,2.2,3.1,46,0.00,,,0.00,VWS V14.01,2013-11-16 08:42:00,
2013-11-16 00:47:00,48.2,27.9,29.72,SSE,165,0.0,2.7,45,0.00,,,0.00,VWS V14.01,2013-11-16 08:47:00,
2013-11-16 00:52:00,48.2,27.9,29.72,WSW,243,0.0,3.6,45,0.00,,,0.00,VWS V14.01,2013-11-16 08:52:00,
2013-11-16 00:57:00,48.0,28.2,29.72,SSW,211,0.0,0.0,46,0.00,,,0.00,VWS V14.01,2013-11-16 08:57:00,
2013-11-16 01:02:00,48.0,28.2,29.72,SSW,198,3.6,3.6,46,0.00,,,0.00,VWS V14.01,2013-11-16 09:02:00,
2013-11-16 01:07:00,48.0,28.2,29.72,SSE,150,4.5,4.5,46,0.00,,,0.00,VWS V14.01,2013-11-16 09:07:00,
2013-11-16 01:12:00,48.2,28.9,29.72,SSW,193,2.7,2.7,47,0.00,,,0.00,VWS V14.01,2013-11-16 09:12:00,
2013-11-16 01:17:00,48.4,29.1,29.72,South,188,2.2,2.2,47,0.00,,,0.00,VWS V14.01,2013-11-16 09:17:00,
2013-11-16 01:22:00,48.6,29.3,29.72,South,182,2.7,3.1,47,0.00,,,0.00,VWS V14.01,2013-11-16 09:22:00,
2013-11-16 01:27:00,48.6,29.3,29.72,ESE,121,4.0,4.0,47,0.00,,,0.00,VWS V14.01,2013-11-16 09:27:00,
2013-11-16 01:32:00,48.6,29.3,29.72,SSW,207,4.0,5.8,47,0.00,,,0.00,VWS V14.01,2013-11-16 09:32:00,
2013-11-16 01:37:00,48.7,29.9,29.72,SE,129,3.6,6.3,48,0.00,,,0.00,VWS V14.01,2013-11-16 09:37:00,
2013-11-16 01:42:00,48.7,29.9,29.72,SSW,197,2.7,2.7,48,0.00,,,0.00,VWS V14.01,2013-11-16 09:42:00,
2013-11-16 01:47:00,48.7,29.9,29.72,South,169,3.1,3.6,48,0.00,,,0.00,VWS V14.01,2013-11-16 09:47:00,
2013-11-16 01:52:00,48.7,29.9,29.72,SE,145,4.9,4.9,48,0.00,,,0.00,VWS V14.01,2013-11-16 09:52:00,
2013-11-16 01:57:00,48.7,30.5,29.72,South,190,2.7,3.6,49,0.00,,,0.00,VWS V14.01,2013-11-16 09:57:00,
2013-11-16 02:02:00,48.7,30.5,29.72,South,169,4.0,4.0,49,0.00,,,0.00,VWS V14.01,2013-11-16 10:02:00,
2013-11-16 02:07:00,48.7,30.5,29.72,South,175,3.6,3.6,49,0.00,,,0.00,VWS V14.01,2013-11-16 10:07:00,
2013-11-16 02:12:00,48.9,31.1,29.72,South,185,0.0,3.1,50,0.00,,,0.00,VWS V14.01,2013-11-16 10:12:00,
2013-11-16 02:17:00,49.1,31.3,29.72,SSW,194,5.4,5.4,50,0.00,,,0.00,VWS V14.01,2013-11-16 10:17:00,
2013-11-16 02:22:00,49.1,31.3,29.72,SSE,167,2.2,4.0,50,0.00,,,0.00,VWS V14.01,2013-11-16 10:22:00,
2013-11-16 02:27:00,49.1,31.3,29.72,South,191,0.0,2.7,50,0.00,,,0.00,VWS V14.01,2013-11-16 10:27:00,
2013-11-16 02:32:00,48.9,31.6,29.72,ESE,120,2.2,2.2,51,0.00,,,0.00,VWS V14.01,2013-11-16 10:32:00,
2013-11-16 02:37:00,48.7,31.4,29.72,South,184,2.7,3.1,51,0.00,,,0.00,VWS V14.01,2013-11-16 10:37:00,
2013-11-16 02:42:00,48.7,31.4,29.72,East,97,2.7,3.1,51,0.00,,,0.00,VWS V14.01,2013-11-16 10:42:00,
2013-11-16 02:47:00,48.7,31.4,29.72,SSE,154,2.7,4.9,51,0.00,,,0.00,VWS V14.01,2013-11-16 10:47:00,
2013-11-16 02:52:00,48.7,31.4,29.72,ESE,113,2.7,2.7,51,0.00,,,0.00,VWS V14.01,2013-11-16 10:52:00,
2013-11-16 02:57:00,48.7,31.4,29.72,South,171,5.8,5.8,51,0.00,,,0.00,VWS V14.01,2013-11-16 10:57:00,
2013-11-16 03:02:00,48.7,31.9,29.72,SE,136,2.7,5.4,52,0.00,,,0.00,VWS V14.01,2013-11-16 11:02:00,
2013-11-16 03:07:00,48.7,31.9,29.72,SE,133,2.7,5.4,52,0.00,,,0.00,VWS V14.01,2013-11-16 11:07:00,
2013-11-16 03:12:00,48.6,31.8,29.72,SSE,155,0.0,5.4,52,0.00,,,0.00,VWS V14.01,2013-11-16 11:12:00,
2013-11-16 03:17:00,48.6,31.8,29.72,NE,36,2.7,2.7,52,0.00,,,0.00,VWS V14.01,2013-11-16 11:17:00,
2013-11-16 03:22:00,48.4,31.6,29.72,South,188,2.7,5.4,52,0.00,,,0.00,VWS V14.01,2013-11-16 11:22:00,
2013-11-16 03:27:00,48.4,31.6,29.72,SSE,164,3.6,3.6,52,0.00,,,0.00,VWS V14.01,2013-11-16 11:27:00,
2013-11-16 03:32:00,48.2,31.4,29.72,SSW,213,2.2,2.2,52,0.00,,,0.00,VWS V14.01,2013-11-16 11:32:00,
2013-11-16 03:37:00,48.0,31.2,29.72,SSW,198,0.0,0.0,52,0.00,,,0.00,VWS V14.01,2013-11-16 11:37:00,
2013-11-16 03:42:00,48.0,31.2,29.72,SE,127,0.0,0.0,52,0.00,,,0.00,VWS V14.01,2013-11-16 11:42:00,
2013-11-16 03:47:00,47.8,31.1,29.72,SSE,152,2.2,2.2,52,0.00,,,0.00,VWS V14.01,2013-11-16 11:47:00,
2013-11-16 03:52:00,47.8,31.1,29.72,South,190,0.0,0.0,52,0.00,,,0.00,VWS V14.01,2013-11-16 11:52:00,
2013-11-16 03:57:00,47.7,30.9,29.72,SE,142,0.0,0.0,52,0.00,,,0.00,VWS V14.01,2013-11-16 11:57:00,
2013-11-16 04:02:00,47.7,30.9,29.72,SE,144,0.0,0.0,52,0.00,,,0.00,VWS V14.01,2013-11-16 12:02:00,
2013-11-16 04:07:00,47.5,30.8,29.72,SE,131,2.2,2.2,52,0.00,,,0.00,VWS V14.01,2013-11-16 12:07:00,
2013-11-16 04:12:00,47.5,31.2,29.72,SE,127,0.0,2.2,53,0.00,,,0.00,VWS V14.01,2013-11-16 12:12:00,
2013-11-16 04:17:00,47.5,31.2,29.72,East,89,0.0,0.0,53,0.00,,,0.00,VWS V14.01,2013-11-16 12:17:00,
2013-11-16 04:22:00,47.7,31.4,29.72,ESE,120,0.0,0.0,53,0.00,,,0.00,VWS V14.01,2013-11-16 12:22:00,
2013-11-16 04:27:00,47.7,31.4,29.72,SSE,149,0.0,0.0,53,0.00,,,0.00,VWS V14.01,2013-11-16 12:27:00,
2013-11-16 04:32:00,47.5,31.2,29.72,SE,134,0.0,0.0,53,0.00,,,0.00,VWS V14.01,2013-11-16 12:32:00,
2013-11-16 04:37:00,47.7,31.4,29.72,ESE,115,0.0,3.6,53,0.00,,,0.00,VWS V14.01,2013-11-16 12:37:00,
2013-11-16 04:42:00,47.7,31.4,29.72,SSE,153,0.0,0.0,53,0.00,,,0.00,VWS V14.01,2013-11-16 12:42:00,
2013-11-16 04:47:00,47.7,31.4,29.72,SE,127,2.2,2.2,53,0.00,,,0.00,VWS V14.01,2013-11-16 12:47:00,
2013-11-16 04:52:00,47.8,31.5,29.72,SE,133,3.6,3.6,53,0.00,,,0.00,VWS V14.01,2013-11-16 12:52:00,
2013-11-16 04:57:00,47.8,31.5,29.72,ESE,115,2.7,3.1,53,0.00,,,0.00,VWS V14.01,2013-11-16 12:57:00,
2013-11-16 05:02:00,47.8,31.5,29.72,ESE,118,0.0,0.0,53,0.00,,,0.00,VWS V14.01,2013-11-16 13:02:00,
2013-11-16 05:07:00,47.8,31.5,29.72,SE,134,2.2,2.2,53,0.00,,,0.00,VWS V14.01,2013-11-16 13:07:00,
2013-11-16 05:12:00,47.8,31.5,29.72,SSE,152,0.0,0.0,53,0.00,,,0.00,VWS V14.01,2013-11-16 13:12:00,
2013-11-16 05:17:00,47.8,31.5,29.72,South,177,0.0,0.0,53,0.00,,,0.00,VWS V14.01,2013-11-16 13:17:00,
2013-11-16 05:22:00,47.8,31.5,29.72,South,170,0.0,2.2,53,0.00,,,0.00,VWS V14.01,2013-11-16 13:22:00,
2013-11-16 05:27:00,47.8,31.5,29.72,SSW,210,0.0,0.0,53,0.00,,,0.00,VWS V14.01,2013-11-16 13:27:00,
2013-11-16 05:32:00,47.8,31.5,29.72,South,190,0.0,0.0,53,0.00,,,0.00,VWS V14.01,2013-11-16 13:32:00,
2013-11-16 05:37:00,47.7,30.9,29.75,SW,216,0.0,2.2,52,0.00,,,0.00,VWS V14.01,2013-11-16 13:37:00,
2013-11-16 05:42:00,47.5,30.8,29.75,SSE,151,0.0,0.0,52,0.00,,,0.00,VWS V14.01,2013-11-16 13:42:00,
2013-11-16 05:47:00,47.3,30.6,29.75,SSE,154,0.0,0.0,52,0.00,,,0.00,VWS V14.01,2013-11-16 13:47:00,
2013-11-16 05:52:00,47.5,31.2,29.75,East,93,0.0,0.0,53,0.00,,,0.00,VWS V14.01,2013-11-16 13:52:00,
2013-11-16 05:57:00,47.5,31.2,29.75,SSE,153,0.0,0.0,53,0.00,,,0.00,VWS V14.01,2013-11-16 13:57:00,
2013-11-16 06:02:00,47.7,31.4,29.75,SSE,152,3.1,3.1,53,0.00,,,0.00,VWS V14.01,2013-11-16 14:02:00,
2013-11-16 06:07:00,47.7,31.4,29.75,South,170,2.7,2.7,53,0.00,,,0.00,VWS V14.01,2013-11-16 14:07:00,
2013-11-16 06:12:00,47.7,31.4,29.75,South,181,0.0,0.0,53,0.00,,,0.00,VWS V14.01,2013-11-16 14:12:00,
2013-11-16 06:17:00,47.7,31.4,29.75,South,174,0.0,0.0,53,0.00,,,0.00,VWS V14.01,2013-11-16 14:17:00,
2013-11-16 06:22:00,47.5,31.2,29.75,SSE,166,0.0,0.0,53,0.00,,,0.00,VWS V14.01,2013-11-16 14:22:00,
2013-11-16 06:27:00,47.3,31.0,29.75,SSW,198,0.0,0.0,53,0.00,,,0.00,VWS V14.01,2013-11-16 14:27:00,
2013-11-16 06:32:00,47.3,31.0,29.75,South,171,0.0,3.6,53,0.00,,,0.00,VWS V14.01,2013-11-16 14:32:00,
2013-11-16 06:37:00,47.3,31.0,29.75,SSW,192,0.0,2.2,53,0.00,,,0.00,VWS V14.01,2013-11-16 14:37:00,
2013-11-16 06:42:00,47.3,31.0,29.75,ESE,123,0.0,0.0,53,0.00,,,0.00,VWS V14.01,2013-11-16 14:42:00,
2013-11-16 06:47:00,47.3,31.0,29.75,SE,127,0.0,0.0,53,0.00,,,0.00,VWS V14.01,2013-11-16 14:47:00,
2013-11-16 06:52:00,47.3,31.0,29.75,SE,126,3.1,3.6,53,0.00,,,0.00,VWS V14.01,2013-11-16 14:52:00,
2013-11-16 06:57:00,47.5,31.2,29.75,ESE,123,3.1,3.1,53,0.00,,,0.00,VWS V14.01,2013-11-16 14:57:00,
2013-11-16 07:02:00,47.5,31.2,29.75,SE,125,0.0,0.0,53,0.00,,,0.00,VWS V14.01,2013-11-16 15:02:00,
2013-11-16 07:07:00,47.5,31.2,29.75,ESE,107,2.7,2.7,53,0.00,,,0.00,VWS V14.01,2013-11-16 15:07:00,
2013-11-16 07:12:00,47.8,32.0,29.75,East,93,2.7,2.7,54,0.00,,,0.00,VWS V14.01,2013-11-16 15:12:00,
2013-11-16 07:17:00,47.8,32.0,29.75,East,101,0.0,2.2,54,0.00,,,0.00,VWS V14.01,2013-11-16 15:17:00,
2013-11-16 07:22:00,48.0,32.2,29.75,ESE,114,0.0,0.0,54,0.00,,,0.00,VWS V14.01,2013-11-16 15:22:00,
2013-11-16 07:27:00,48.0,32.2,29.75,ESE,114,0.0,0.0,54,0.00,,,0.00,VWS V14.01,2013-11-16 15:27:00,
2013-11-16 07:32:00,47.8,31.5,29.75,ESE,114,0.0,0.0,53,0.00,,,0.00,VWS V14.01,2013-11-16 15:32:00,
2013-11-16 07:37:00,47.8,31.5,29.78,ESE,114,0.0,0.0,53,0.00,,,0.00,VWS V14.01,2013-11-16 15:37:00,
2013-11-16 07:42:00,48.0,32.2,29.78,SE,127,0.0,2.7,54,0.00,,,0.00,VWS V14.01,2013-11-16 15:42:00,
2013-11-16 07:47:00,48.4,32.5,29.78,ESE,122,0.0,0.0,54,0.00,,,0.00,VWS V14.01,2013-11-16 15:47:00,
2013-11-16 07:52:00,48.9,33.0,29.78,South,174,0.0,2.2,54,0.00,,,0.00,VWS V14.01,2013-11-16 15:52:00,
2013-11-16 07:57:00,49.3,33.4,29.78,ESE,120,0.0,3.6,54,0.00,,,0.00,VWS V14.01,2013-11-16 15:57:00,
2013-11-16 08:02:00,49.6,33.7,29.78,South,187,0.0,2.7,54,0.00,,,0.00,VWS V14.01,2013-11-16 16:02:00,
2013-11-16 08:07:00,50.0,33.6,29.78,ESE,121,3.1,3.1,53,0.00,,,0.00,VWS V14.01,2013-11-16 16:07:00,
2013-11-16 08:12:00,50.4,33.9,29.78,SW,215,0.0,0.0,53,0.00,,,0.00,VWS V14.01,2013-11-16 16:12:00,
2013-11-16 08:17:00,50.7,33.8,29.78,SSW,196,0.0,2.2,52,0.00,,,0.00,VWS V14.01,2013-11-16 16:17:00,
2013-11-16 08:22:00,51.1,34.1,29.78,SSE,166,2.2,2.2,52,0.00,,,0.00,VWS V14.01,2013-11-16 16:22:00,
2013-11-16 08:27:00,51.1,33.6,29.78,SE,136,3.1,3.1,51,0.00,,,0.00,VWS V14.01,2013-11-16 16:27:00,
2013-11-16 08:32:00,50.9,33.4,29.78,SE,146,2.7,2.7,51,0.00,,,0.00,VWS V14.01,2013-11-16 16:32:00,
2013-11-16 08:37:00,51.1,33.1,29.78,SSE,167,3.1,3.1,50,0.00,,,0.00,VWS V14.01,2013-11-16 16:37:00,
2013-11-16 08:42:00,51.4,33.4,29.78,SW,217,3.1,3.1,50,0.00,,,0.00,VWS V14.01,2013-11-16 16:42:00,
2013-11-16 08:47:00,51.6,33.1,29.78,SE,137,2.2,4.9,49,0.00,,,0.00,VWS V14.01,2013-11-16 16:47:00,
2013-11-16 08:52:00,51.8,32.8,29.78,SSE,156,4.0,4.5,48,0.00,,,0.00,VWS V14.01,2013-11-16 16:52:00,
2013-11-16 08:57:00,52.2,32.6,29.78,South,173,5.8,5.8,47,0.00,,,0.00,VWS V14.01,2013-11-16 16:57:00,
2013-11-16 09:02:00,52.2,32.0,29.78,SSW,198,3.6,4.9,46,0.00,,,0.00,VWS V14.01,2013-11-16 17:02:00,
2013-11-16 09:07:00,52.3,30.5,29.81,ESE,112,0.0,3.6,43,0.00,,,0.00,VWS V14.01,2013-11-16 17:07:00,
2013-11-16 09:12:00,53.1,31.2,29.81,SE,146,0.0,4.0,43,0.00,,,0.00,VWS V14.01,2013-11-16 17:12:00,
2013-11-16 09:17:00,53.2,30.8,29.81,SE,143,0.0,2.7,42,0.00,,,0.00,VWS V14.01,2013-11-16 17:17:00,
2013-11-16 09:22:00,53.4,29.7,29.81,SE,134,0.0,0.0,40,0.00,,,0.00,VWS V14.01,2013-11-16 17:22:00,
2013-11-16 09:27:00,53.8,28.1,29.81,SSW,193,2.7,4.9,37,0.00,,,0.00,VWS V14.01,2013-11-16 17:27:00,
2013-11-16 09:32:00,54.1,28.5,29.81,SSW,197,4.0,4.0,37,0.00,,,0.00,VWS V14.01,2013-11-16 17:32:00,
2013-11-16 09:37:00,54.1,25.7,29.81,South,187,2.2,2.2,33,0.00,,,0.00,VWS V14.01,2013-11-16 17:37:00,
2013-11-16 09:42:00,54.7,22.2,29.81,SSW,208,5.4,5.4,28,0.00,,,0.00,VWS V14.01,2013-11-16 17:42:00,
2013-11-16 09:47:00,54.7,20.5,29.81,South,175,3.6,3.6,26,0.00,,,0.00,VWS V14.01,2013-11-16 17:47:00,
2013-11-16 09:52:00,55.0,19.9,29.81,SSW,195,0.0,4.0,25,0.00,,,0.00,VWS V14.01,2013-11-16 17:52:00,
2013-11-16 09:57:00,55.4,15.0,29.81,West,274,3.6,4.9,20,0.00,,,0.00,VWS V14.01,2013-11-16 17:57:00,
2013-11-16 10:02:00,55.4,11.3,29.81,West,275,2.7,3.1,17,0.00,,,0.00,VWS V14.01,2013-11-16 18:02:00,
2013-11-16 10:07:00,55.8,11.6,29.81,SW,229,4.0,4.0,17,0.00,,,0.00,VWS V14.01,2013-11-16 18:07:00,
2013-11-16 10:12:00,55.9,11.8,29.81,SSW,208,0.0,0.0,17,0.00,,,0.00,VWS V14.01,2013-11-16 18:12:00,
2013-11-16 10:17:00,56.3,9.3,29.81,West,273,3.1,3.1,15,0.00,,,0.00,VWS V14.01,2013-11-16 18:17:00,
2013-11-16 10:22:00,56.5,9.4,29.81,WNW,297,2.2,2.7,15,0.00,,,0.00,VWS V14.01,2013-11-16 18:22:00,
2013-11-16 10:27:00,56.3,9.3,29.81,SSW,211,0.0,0.0,15,0.00,,,0.00,VWS V14.01,2013-11-16 18:27:00,
2013-11-16 10:32:00,56.8,9.7,29.81,WSW,240,2.7,2.7,15,0.00,,,0.00,VWS V14.01,2013-11-16 18:32:00,
2013-11-16 10:37:00,57.2,5.1,29.81,West,276,2.7,2.7,12,0.00,,,0.00,VWS V14.01,2013-11-16 18:37:00,
2013-11-16 10:42:00,57.0,4.9,29.81,WNW,301,4.0,4.0,12,0.00,,,0.00,VWS V14.01,2013-11-16 18:42:00,
2013-11-16 10:47:00,57.2,5.1,29.81,West,272,5.4,5.4,12,0.00,,,0.00,VWS V14.01,2013-11-16 18:47:00,
2013-11-16 10:52:00,57.0,4.9,29.81,WNW,287,0.0,2.2,12,0.00,,,0.00,VWS V14.01,2013-11-16 18:52:00,
2013-11-16 10:57:00,57.4,5.2,29.81,SW,216,3.6,3.6,12,0.00,,,0.00,VWS V14.01,2013-11-16 18:57:00,
2013-11-16 11:02:00,57.4,5.2,29.81,North,0,3.1,3.1,12,0.00,,,0.00,VWS V14.01,2013-11-16 19:02:00,
2013-11-16 11:07:00,57.6,5.3,29.81,NW,305,2.7,3.6,12,0.00,,,0.00,VWS V14.01,2013-11-16 19:07:00,
2013-11-16 11:12:00,57.7,5.5,29.81,NNW,331,3.1,3.1,12,0.00,,,0.00,VWS V14.01,2013-11-16 19:12:00,
2013-11-16 11:17:00,58.1,5.8,29.81,WSW,238,3.6,4.0,12,0.00,,,0.00,VWS V14.01,2013-11-16 19:17:00,
2013-11-16 11:22:00,58.6,6.2,29.78,West,259,4.0,4.0,12,0.00,,,0.00,VWS V14.01,2013-11-16 19:22:00,
2013-11-16 11:27:00,58.8,6.3,29.78,SSW,192,2.2,3.6,12,0.00,,,0.00,VWS V14.01,2013-11-16 19:27:00,
2013-11-16 11:32:00,59.2,6.6,29.78,South,190,3.6,5.4,12,0.00,,,0.00,VWS V14.01,2013-11-16 19:32:00,
2013-11-16 11:37:00,59.7,7.0,29.78,SSW,209,3.1,6.3,12,0.00,,,0.00,VWS V14.01,2013-11-16 19:37:00,
2013-11-16 11:42:00,59.5,6.9,29.78,NW,320,2.7,3.1,12,0.00,,,0.00,VWS V14.01,2013-11-16 19:42:00,
2013-11-16 11:47:00,59.7,7.0,29.78,SW,236,2.7,4.0,12,0.00,,,0.00,VWS V14.01,2013-11-16 19:47:00,
2013-11-16 11:52:00,59.7,7.0,29.78,South,170,3.1,4.0,12,0.00,,,0.00,VWS V14.01,2013-11-16 19:52:00,
2013-11-16 11:57:00,60.3,7.5,29.78,NW,314,3.1,4.9,12,0.00,,,0.00,VWS V14.01,2013-11-16 19:57:00,
2013-11-16 12:02:00,60.6,7.8,29.78,South,184,0.0,3.6,12,0.00,,,0.00,VWS V14.01,2013-11-16 20:02:00,
2013-11-16 12:07:00,60.8,6.0,29.78,WNW,288,2.7,2.7,11,0.00,,,0.00,VWS V14.01,2013-11-16 20:07:00,
2013-11-16 12:12:00,60.8,6.0,29.78,SW,229,3.6,3.6,11,0.00,,,0.00,VWS V14.01,2013-11-16 20:12:00,
2013-11-16 12:17:00,61.2,6.3,29.78,West,259,2.2,3.6,11,0.00,,,0.00,VWS V14.01,2013-11-16 20:17:00,
2013-11-16 12:22:00,61.3,6.4,29.78,SW,220,2.7,3.6,11,0.00,,,0.00,VWS V14.01,2013-11-16 20:22:00,
2013-11-16 12:27:00,61.7,6.7,29.78,West,261,3.6,3.6,11,0.00,,,0.00,VWS V14.01,2013-11-16 20:27:00,
2013-11-16 12:32:00,61.2,6.3,29.78,WNW,293,4.0,4.0,11,0.00,,,0.00,VWS V14.01,2013-11-16 20:32:00,
2013-11-16 12:37:00,60.8,6.0,29.78,ESE,105,3.1,3.1,11,0.00,,,0.00,VWS V14.01,2013-11-16 20:37:00,
2013-11-16 12:42:00,61.3,6.4,29.78,West,260,6.3,6.3,11,0.00,,,0.00,VWS V14.01,2013-11-16 20:42:00,
2013-11-16 12:47:00,61.0,6.1,29.78,SW,232,4.0,6.3,11,0.00,,,0.00,VWS V14.01,2013-11-16 20:47:00,
2013-11-16 12:52:00,61.2,6.3,29.78,SSW,201,2.7,2.7,11,0.00,,,0.00,VWS V14.01,2013-11-16 20:52:00,
2013-11-16 12:57:00,61.5,6.5,29.78,SW,217,3.6,4.0,11,0.00,,,0.00,VWS V14.01,2013-11-16 20:57:00,
2013-11-16 13:02:00,61.9,6.8,29.78,SW,223,2.7,3.1,11,0.00,,,0.00,VWS V14.01,2013-11-16 21:02:00,
2013-11-16 13:07:00,62.2,7.1,29.78,SW,229,3.6,4.0,11,0.00,,,0.00,VWS V14.01,2013-11-16 21:07:00,
2013-11-16 13:12:00,61.9,6.8,29.78,SSW,206,3.1,3.6,11,0.00,,,0.00,VWS V14.01,2013-11-16 21:12:00,
2013-11-16 13:17:00,61.9,6.8,29.78,WSW,249,2.7,5.4,11,0.00,,,0.00,VWS V14.01,2013-11-16 21:17:00,
2013-11-16 13:22:00,62.2,7.1,29.75,SE,137,2.7,3.1,11,0.00,,,0.00,VWS V14.01,2013-11-16 21:22:00,
2013-11-16 13:27:00,62.4,7.2,29.75,SSW,196,3.1,3.6,11,0.00,,,0.00,VWS V14.01,2013-11-16 21:27:00,
2013-11-16 13:32:00,61.9,6.8,29.75,South,188,4.9,4.9,11,0.00,,,0.00,VWS V14.01,2013-11-16 21:32:00,
2013-11-16 13:37:00,61.3,6.4,29.75,SW,221,4.0,4.9,11,0.00,,,0.00,VWS V14.01,2013-11-16 21:37:00,
2013-11-16 13:42:00,61.9,6.8,29.75,SSW,207,2.2,3.1,11,0.00,,,0.00,VWS V14.01,2013-11-16 21:42:00,
2013-11-16 13:47:00,62.1,7.0,29.75,SW,232,5.4,5.4,11,0.00,,,0.00,VWS V14.01,2013-11-16 21:47:00,
2013-11-16 13:52:00,61.7,6.7,29.75,SSW,202,2.2,4.0,11,0.00,,,0.00,VWS V14.01,2013-11-16 21:52:00,
2013-11-16 13:57:00,61.9,6.8,29.75,SSW,196,3.1,4.9,11,0.00,,,0.00,VWS V14.01,2013-11-16 21:57:00,
2013-11-16 14:02:00,62.1,7.0,29.75,South,191,3.6,3.6,11,0.00,,,0.00,VWS V14.01,2013-11-16 22:02:00,
2013-11-16 14:07:00,62.2,7.1,29.75,SW,223,4.9,5.4,11,0.00,,,0.00,VWS V14.01,2013-11-16 22:07:00,
2013-11-16 14:12:00,62.2,7.1,29.75,South,169,3.6,3.6,11,0.00,,,0.00,VWS V14.01,2013-11-16 22:12:00,
2013-11-16 14:17:00,62.6,7.4,29.75,SW,236,3.1,3.1,11,0.00,,,0.00,VWS V14.01,2013-11-16 22:17:00,
2013-11-16 14:22:00,62.6,7.4,29.75,SW,220,5.4,6.3,11,0.00,,,0.00,VWS V14.01,2013-11-16 22:22:00,
2013-11-16 14:27:00,62.2,7.1,29.75,SE,128,2.7,3.6,11,0.00,,,0.00,VWS V14.01,2013-11-16 22:27:00,
2013-11-16 14:32:00,62.4,7.2,29.75,East,83,3.1,4.0,11,0.00,,,0.00,VWS V14.01,2013-11-16 22:32:00,
2013-11-16 14:37:00,62.6,7.4,29.75,South,181,4.0,4.0,11,0.00,,,0.00,VWS V14.01,2013-11-16 22:37:00,
2013-11-16 14:42:00,62.8,7.5,29.75,South,190,3.1,3.6,11,0.00,,,0.00,VWS V14.01,2013-11-16 22:42:00,
2013-11-16 14:47:00,63.1,7.8,29.75,SSW,209,4.0,4.0,11,0.00,,,0.00,VWS V14.01,2013-11-16 22:47:00,
2013-11-16 14:52:00,63.0,7.7,29.75,SSE,152,4.0,4.0,11,0.00,,,0.00,VWS V14.01,2013-11-16 22:52:00,
2013-11-16 14:57:00,63.0,7.7,29.75,WSW,248,6.3,7.6,11,0.00,,,0.00,VWS V14.01,2013-11-16 22:57:00,
2013-11-16 15:02:00,62.6,7.4,29.75,SSE,167,4.0,4.0,11,0.00,,,0.00,VWS V14.01,2013-11-16 23:02:00,
2013-11-16 15:07:00,62.2,7.1,29.78,SW,224,4.0,4.0,11,0.00,,,0.00,VWS V14.01,2013-11-16 23:07:00,
2013-11-16 15:12:00,61.7,12.1,29.78,SW,229,3.6,5.4,14,0.00,,,0.00,VWS V14.01,2013-11-16 23:12:00,
2013-11-16 15:17:00,61.3,11.8,29.78,SW,220,2.7,3.6,14,0.00,,,0.00,VWS V14.01,2013-11-16 23:17:00,
2013-11-16 15:22:00,61.5,11.9,29.78,SW,224,5.4,5.8,14,0.00,,,0.00,VWS V14.01,2013-11-16 23:22:00,
2013-11-16 15:27:00,61.3,11.8,29.78,South,184,3.1,4.9,14,0.00,,,0.00,VWS V14.01,2013-11-16 23:27:00,
2013-11-16 15:32:00,61.5,11.9,29.78,WSW,252,3.1,3.6,14,0.00,,,0.00,VWS V14.01,2013-11-16 23:32:00,
2013-11-16 15:37:00,61.3,11.8,29.78,WSW,256,3.6,4.0,14,0.00,,,0.00,VWS V14.01,2013-11-16 23:37:00,
2013-11-16 15:42:00,61.0,11.5,29.78,WSW,248,5.8,5.8,14,0.00,,,0.00,VWS V14.01,2013-11-16 23:42:00,
2013-11-16 15:47:00,61.0,11.5,29.78,WSW,237,4.5,5.4,14,0.00,,,0.00,VWS V14.01,2013-11-16 23:47:00,
2013-11-16 15:52:00,61.0,11.5,29.78,SSW,203,4.9,4.9,14,0.00,,,0.00,VWS V14.01,2013-11-16 23:52:00,
2013-11-16 15:57:00,60.6,11.2,29.78,SSW,196,4.0,4.0,14,0.00,,,0.00,VWS V14.01,2013-11-16 23:57:00,
2013-11-16 16:02:00,60.6,11.2,29.78,SSW,213,4.0,4.0,14,0.00,,,0.00,VWS V14.01,2013-11-17 00:02:00,
2013-11-16 16:07:00,60.4,11.0,29.78,SSW,212,3.1,3.6,14,0.00,,,0.00,VWS V14.01,2013-11-17 00:07:00,
2013-11-16 16:12:00,60.1,10.8,29.78,WSW,245,4.0,4.0,14,0.00,,,0.00,VWS V14.01,2013-11-17 00:12:00,
2013-11-16 16:17:00,59.7,10.5,29.78,WNW,289,4.9,4.9,14,0.00,,,0.00,VWS V14.01,2013-11-17 00:17:00,
2013-11-16 16:22:00,59.4,10.2,29.78,South,183,2.7,3.1,14,0.00,,,0.00,VWS V14.01,2013-11-17 00:22:00,
2013-11-16 16:27:00,59.2,14.4,29.78,WNW,298,6.3,7.2,17,0.00,,,0.00,VWS V14.01,2013-11-17 00:27:00,
2013-11-16 16:32:00,58.8,14.1,29.78,West,277,2.7,3.1,17,0.00,,,0.00,VWS V14.01,2013-11-17 00:32:00,
2013-11-16 16:37:00,58.5,13.8,29.78,WNW,289,3.6,5.4,17,0.00,,,0.00,VWS V14.01,2013-11-17 00:37:00,
2013-11-16 16:42:00,58.1,16.1,29.78,WSW,254,6.3,8.7,19,0.00,,,0.00,VWS V14.01,2013-11-17 00:42:00,
2013-11-16 16:47:00,57.6,19.0,29.78,SW,233,3.1,3.1,22,0.00,,,0.00,VWS V14.01,2013-11-17 00:47:00,
2013-11-16 16:52:00,57.2,18.7,29.78,WNW,287,4.9,5.8,22,0.00,,,0.00,VWS V14.01,2013-11-17 00:52:00,
2013-11-16 16:57:00,57.0,21.6,29.78,WNW,285,8.7,8.7,25,0.00,,,0.00,VWS V14.01,2013-11-17 00:57:00,
2013-11-16 17:02:00,56.7,21.3,29.78,NNW,329,2.7,4.0,25,0.00,,,0.00,VWS V14.01,2013-11-17 01:02:00,
2013-11-16 17:07:00,56.5,21.1,29.78,WNW,298,3.6,3.6,25,0.00,,,0.00,VWS V14.01,2013-11-17 01:07:00,
2013-11-16 17:12:00,56.3,21.9,29.78,WSW,241,3.1,3.1,26,0.00,,,0.00,VWS V14.01,2013-11-17 01:12:00,
2013-11-16 17:17:00,56.1,21.7,29.78,SSW,201,2.7,2.7,26,0.00,,,0.00,VWS V14.01,2013-11-17 01:17:00,
2013-11-16 17:22:00,55.9,21.6,29.78,West,278,3.1,4.9,26,0.00,,,0.00,VWS V14.01,2013-11-17 01:22:00,
2013-11-16 17:27:00,55.8,22.3,29.78,West,271,3.6,5.4,27,0.00,,,0.00,VWS V14.01,2013-11-17 01:27:00,
2013-11-16 17:32:00,55.6,23.0,29.78,WNW,294,3.6,4.9,28,0.00,,,0.00,VWS V14.01,2013-11-17 01:32:00,
2013-11-16 17:37:00,55.4,23.7,29.81,WNW,291,3.1,6.3,29,0.00,,,0.00,VWS V14.01,2013-11-17 01:37:00,
2013-11-16 17:42:00,55.2,25.1,29.81,WSW,244,5.4,5.4,31,0.00,,,0.00,VWS V14.01,2013-11-17 01:42:00,
2013-11-16 17:47:00,55.0,25.0,29.81,NNW,333,0.0,4.0,31,0.00,,,0.00,VWS V14.01,2013-11-17 01:47:00,
2013-11-16 17:52:00,54.9,25.6,29.81,NW,307,3.1,5.4,32,0.00,,,0.00,VWS V14.01,2013-11-17 01:52:00,
2013-11-16 17:57:00,54.7,26.9,29.81,West,280,3.6,5.4,34,0.00,,,0.00,VWS V14.01,2013-11-17 01:57:00,
2013-11-16 18:02:00,54.5,27.4,29.81,North,6,5.8,5.8,35,0.00,,,0.00,VWS V14.01,2013-11-17 02:02:00,
2013-11-16 18:07:00,54.3,27.3,29.81,WNW,287,4.9,4.9,35,0.00,,,0.00,VWS V14.01,2013-11-17 02:07:00,
2013-11-16 18:13:00,54.1,27.8,29.81,SW,233,0.0,2.7,36,0.00,,,0.00,VWS V14.01,2013-11-17 02:13:00,
2013-11-16 18:18:00,54.0,27.6,29.81,WNW,282,2.2,3.1,36,0.00,,,0.00,VWS V14.01,2013-11-17 02:18:00,
2013-11-16 18:23:00,53.8,27.5,29.81,SW,222,2.7,2.7,36,0.00,,,0.00,VWS V14.01,2013-11-17 02:23:00,
2013-11-16 18:28:00,53.6,27.3,29.81,West,268,4.0,4.0,36,0.00,,,0.00,VWS V14.01,2013-11-17 02:28:00,
2013-11-16 18:33:00,53.4,27.1,29.81,West,271,0.0,0.0,36,0.00,,,0.00,VWS V14.01,2013-11-17 02:33:00,
2013-11-16 18:38:00,53.2,27.0,29.81,West,271,0.0,0.0,36,0.00,,,0.00,VWS V14.01,2013-11-17 02:38:00,
2013-11-16 18:43:00,53.2,27.7,29.81,West,265,3.6,3.6,37,0.00,,,0.00,VWS V14.01,2013-11-17 02:43:00,
2013-11-16 18:48:00,53.2,28.3,29.81,North,353,3.1,5.4,38,0.00,,,0.00,VWS V14.01,2013-11-17 02:48:00,
2013-11-16 18:53:00,53.1,28.1,29.81,WNW,287,3.6,3.6,38,0.00,,,0.00,VWS V14.01,2013-11-17 02:53:00,
2013-11-16 18:58:00,53.1,28.8,29.81,WNW,285,2.7,4.0,39,0.00,,,0.00,VWS V14.01,2013-11-17 02:58:00,
2013-11-16 19:03:00,53.1,28.8,29.81,West,280,3.1,4.0,39,0.00,,,0.00,VWS V14.01,2013-11-17 03:03:00,
2013-11-16 19:08:00,53.1,28.8,29.81,WNW,291,0.0,4.0,39,0.00,,,0.00,VWS V14.01,2013-11-17 03:08:00,
2013-11-16 19:13:00,52.9,28.6,29.81,SW,221,0.0,2.7,39,0.00,,,0.00,VWS V14.01,2013-11-17 03:13:00,
2013-11-16 19:18:00,52.7,28.5,29.81,SW,220,2.7,3.1,39,0.00,,,0.00,VWS V14.01,2013-11-17 03:18:00,
2013-11-16 19:23:00,52.5,28.3,29.81,SW,217,0.0,4.0,39,0.00,,,0.00,VWS V14.01,2013-11-17 03:23:00,
2013-11-16 19:28:00,52.5,28.3,29.81,West,267,0.0,0.0,39,0.00,,,0.00,VWS V14.01,2013-11-17 03:28:00,
2013-11-16 19:33:00,52.3,28.1,29.81,West,267,0.0,0.0,39,0.00,,,0.00,VWS V14.01,2013-11-17 03:33:00,
2013-11-16 19:38:00,52.2,28.0,29.81,WNW,282,2.7,2.7,39,0.00,,,0.00,VWS V14.01,2013-11-17 03:38:00,
2013-11-16 19:43:00,52.0,27.8,29.81,West,276,2.2,2.7,39,0.00,,,0.00,VWS V14.01,2013-11-17 03:43:00,
2013-11-16 19:48:00,52.0,28.4,29.81,West,279,2.7,2.7,40,0.00,,,0.00,VWS V14.01,2013-11-17 03:48:00,
2013-11-16 19:53:00,52.2,29.2,29.84,WNW,290,2.7,3.6,41,0.00,,,0.00,VWS V14.01,2013-11-17 03:53:00,
2013-11-16 19:58:00,52.2,29.2,29.84,WNW,286,2.7,2.7,41,0.00,,,0.00,VWS V14.01,2013-11-17 03:58:00,
2013-11-16 20:03:00,52.2,29.8,29.84,WSW,244,4.9,4.9,42,0.00,,,0.00,VWS V14.01,2013-11-17 04:03:00,
2013-11-16 20:08:00,52.3,30.0,29.84,SW,229,0.0,0.0,42,0.00,,,0.00,VWS V14.01,2013-11-17 04:08:00,
2013-11-16 20:13:00,52.2,29.8,29.84,SW,217,0.0,0.0,42,0.00,,,0.00,VWS V14.01,2013-11-17 04:13:00,
2013-11-16 20:18:00,52.0,29.6,29.84,SSW,209,0.0,0.0,42,0.00,,,0.00,VWS V14.01,2013-11-17 04:18:00,
2013-11-16 20:23:00,52.0,29.6,29.84,SSW,209,0.0,0.0,42,0.00,,,0.00,VWS V14.01,2013-11-17 04:23:00,
2013-11-16 20:28:00,51.8,29.5,29.84,SW,231,0.0,0.0,42,0.00,,,0.00,VWS V14.01,2013-11-17 04:28:00,
2013-11-16 20:33:00,51.8,29.5,29.84,SW,231,0.0,0.0,42,0.00,,,0.00,VWS V14.01,2013-11-17 04:33:00,
2013-11-16 20:38:00,51.8,29.5,29.84,SW,234,0.0,0.0,42,0.00,,,0.00,VWS V14.01,2013-11-17 04:38:00,
2013-11-16 20:43:00,51.8,29.5,29.84,West,272,0.0,0.0,42,0.00,,,0.00,VWS V14.01,2013-11-17 04:43:00,
2013-11-16 20:48:00,51.8,29.5,29.84,West,272,0.0,0.0,42,0.00,,,0.00,VWS V14.01,2013-11-17 04:48:00,
2013-11-16 20:53:00,51.6,29.9,29.84,West,272,0.0,0.0,43,0.00,,,0.00,VWS V14.01,2013-11-17 04:53:00,
2013-11-16 20:58:00,51.6,29.9,29.84,SW,217,0.0,0.0,43,0.00,,,0.00,VWS V14.01,2013-11-17 04:58:00,
2013-11-16 21:01:00,51.6,29.9,29.84,SSW,203,0.0,0.0,43,0.00,,,0.00,VWS V14.01,2013-11-17 05:01:00,
2013-11-16 21:02:00,51.6,29.9,29.84,SW,223,0.0,0.0,43,0.00,,,0.00,VWS V14.01,2013-11-17 05:02:00,
2013-11-16 21:07:00,51.4,29.7,29.84,SW,220,0.0,0.0,43,0.00,,,0.00,VWS V14.01,2013-11-17 05:07:00,
2013-11-16 21:12:00,51.3,29.5,29.84,SW,228,0.0,0.0,43,0.00,,,0.00,VWS V14.01,2013-11-17 05:12:00,
2013-11-16 21:17:00,50.9,29.2,29.84,SW,229,0.0,0.0,43,0.00,,,0.00,VWS V14.01,2013-11-17 05:17:00,
2013-11-16 21:22:00,50.7,29.1,29.84,SW,228,0.0,0.0,43,0.00,,,0.00,VWS V14.01,2013-11-17 05:22:00,
2013-11-16 21:27:00,50.7,29.1,29.84,SW,229,0.0,0.0,43,0.00,,,0.00,VWS V14.01,2013-11-17 05:27:00,
2013-11-16 21:32:00,50.5,28.9,29.84,SW,229,0.0,0.0,43,0.00,,,0.00,VWS V14.01,2013-11-17 05:32:00,
2013-11-16 21:37:00,50.4,29.3,29.84,SW,228,0.0,0.0,44,0.00,,,0.00,VWS V14.01,2013-11-17 05:37:00,
2013-11-16 21:42:00,50.4,29.3,29.84,SW,228,0.0,0.0,44,0.00,,,0.00,VWS V14.01,2013-11-17 05:42:00,
2013-11-16 21:47:00,50.5,29.5,29.84,SW,228,0.0,0.0,44,0.00,,,0.00,VWS V14.01,2013-11-17 05:47:00,
2013-11-16 21:52:00,50.7,29.6,29.84,SW,219,2.7,2.7,44,0.00,,,0.00,VWS V14.01,2013-11-17 05:52:00,
2013-11-16 21:57:00,50.9,29.8,29.84,SW,224,0.0,2.2,44,0.00,,,0.00,VWS V14.01,2013-11-17 05:57:00,
2013-11-16 22:02:00,51.1,30.5,29.84,WNW,289,2.7,3.6,45,0.00,,,0.00,VWS V14.01,2013-11-17 06:02:00,
2013-11-16 22:07:00,51.3,30.7,29.84,WNW,289,0.0,0.0,45,0.00,,,0.00,VWS V14.01,2013-11-17 06:07:00,
2013-11-16 22:12:00,51.4,30.8,29.84,NNE,23,0.0,0.0,45,0.00,,,0.00,VWS V14.01,2013-11-17 06:12:00,
2013-11-16 22:17:00,51.6,31.0,29.84,WNW,293,0.0,0.0,45,0.00,,,0.00,VWS V14.01,2013-11-17 06:17:00,
2013-11-16 22:22:00,51.6,31.0,29.84,WSW,254,0.0,0.0,45,0.00,,,0.00,VWS V14.01,2013-11-17 06:22:00,
2013-11-16 22:27:00,51.4,30.8,29.84,SW,229,0.0,0.0,45,0.00,,,0.00,VWS V14.01,2013-11-17 06:27:00,
2013-11-16 22:32:00,51.4,30.8,29.84,SW,224,0.0,0.0,45,0.00,,,0.00,VWS V14.01,2013-11-17 06:32:00,
2013-11-16 22:37:00,51.3,30.7,29.84,SW,224,0.0,0.0,45,0.00,,,0.00,VWS V14.01,2013-11-17 06:37:00,
2013-11-16 22:42:00,50.9,29.8,29.84,SW,224,0.0,0.0,44,0.00,,,0.00,VWS V14.01,2013-11-17 06:42:00,
2013-11-16 22:47:00,50.5,29.5,29.84,SW,224,0.0,0.0,44,0.00,,,0.00,VWS V14.01,2013-11-17 06:47:00,
2013-11-16 22:52:00,50.2,29.1,29.84,SW,224,0.0,0.0,44,0.00,,,0.00,VWS V14.01,2013-11-17 06:52:00,
2013-11-16 22:57:00,50.0,29.0,29.84,SW,224,0.0,0.0,44,0.00,,,0.00,VWS V14.01,2013-11-17 06:57:00,
2013-11-16 23:02:00,49.8,29.4,29.84,SW,224,0.0,0.0,45,0.00,,,0.00,VWS V14.01,2013-11-17 07:02:00,
2013-11-16 23:07:00,49.6,29.2,29.87,SW,224,0.0,0.0,45,0.00,,,0.00,VWS V14.01,2013-11-17 07:07:00,
2013-11-16 23:12:00,49.5,29.0,29.87,SW,224,0.0,0.0,45,0.00,,,0.00,VWS V14.01,2013-11-17 07:12:00,
2013-11-16 23:17:00,49.6,29.7,29.87,SE,139,0.0,0.0,46,0.00,,,0.00,VWS V14.01,2013-11-17 07:17:00,
2013-11-16 23:22:00,49.6,29.7,29.87,South,189,0.0,2.2,46,0.00,,,0.00,VWS V14.01,2013-11-17 07:22:00,
2013-11-16 23:27:00,49.8,29.9,29.87,ESE,110,0.0,0.0,46,0.00,,,0.00,VWS V14.01,2013-11-17 07:27:00,
2013-11-16 23:32:00,49.8,29.9,29.87,South,189,0.0,0.0,46,0.00,,,0.00,VWS V14.01,2013-11-17 07:32:00,
2013-11-16 23:37:00,50.2,30.2,29.87,SSE,163,0.0,0.0,46,0.00,,,0.00,VWS V14.01,2013-11-17 07:37:00,
2013-11-16 23:42:00,50.5,31.1,29.87,South,172,0.0,2.2,47,0.00,,,0.00,VWS V14.01,2013-11-17 07:42:00,
2013-11-16 23:47:00,50.7,31.2,29.87,SE,133,0.0,0.0,47,0.00,,,0.00,VWS V14.01,2013-11-17 07:47:00,
2013-11-16 23:52:00,50.9,31.4,29.87,SSE,153,0.0,2.7,47,0.00,,,0.00,VWS V14.01,2013-11-17 07:52:00,
2013-11-16 23:57:00,51.3,32.3,29.87,SSW,207,0.0,3.1,48,0.00,,,0.00,VWS V14.01,2013-11-17 07:57:00,